Latest Weather Observations for Gove Airport

IDD60801

Issued at 8:51 am CST Wednesday 19 June 2019 (issued every 10 minutes, with the page automatically refreshed every 10 minutes)

About weather observations | Map of weather stations | Latest weather observations for NT | Other Formats
Station Details ID: 014508 Name: GOVE AIRPORT Lat: -12.27 Lon: 136.82 Height: 51.6 m
Data from the previous 72 hours. | See also: Recent months at Gove Airport
Date/Time
CST
Temp
°C
App
Temp
°C
Dew
Point
°C
Rel
Hum
%
Delta-T
°C
Wind Press
QNH
hPa
Press
MSL
hPa
Rain since
9am
mm
Dir  Spd
km/h
Gust
km/h
Spd
kts
Gust
kts
19/08:30am 24.6 22.5 16.3 60 5.1 SSE 22 32 12 17 1015.8 1015.5 0.0
19/08:00am 24.2 22.8 16.5 62 4.7 SSE 19 28 10 15 1015.6 1015.3 0.0
19/07:30am 23.7 22.0 16.2 63 4.6 SSE 20 33 11 18 1015.3 1015.0 0.0
19/07:00am 23.1 21.8 15.9 64 4.4 SSE 17 22 9 12 1014.9 1014.6 0.0
19/06:30am 22.9 21.7 16.0 65 4.2 SSE 17 24 9 13 1014.6 1014.3 0.0
19/06:00am 22.7 22.0 16.3 67 3.9 SSE 15 24 8 13 1014.5 1014.2 0.0
19/05:30am 22.8 21.6 16.1 66 4.1 SSE 17 26 9 14 1014.2 1013.9 0.0
19/05:00am 22.7 22.1 16.7 69 3.7 SSE 15 19 8 10 1014.1 1013.8 0.0
19/04:30am 22.5 21.8 16.5 69 3.7 SSE 15 20 8 11 1013.8 1013.5 0.0
19/04:00am 22.7 21.8 16.9 70 3.6 SSE 17 24 9 13 1013.7 1013.4 0.0
19/03:30am 22.5 22.0 17.0 71 3.4 SSE 15 20 8 11 1013.7 1013.4 0.0
19/03:00am 22.7 22.1 16.7 69 3.7 SSE 15 20 8 11 1013.8 1013.5 0.0
19/02:30am 22.9 22.4 16.9 69 3.7 SSE 15 20 8 11 1014.1 1013.8 0.0
19/02:00am 23.1 22.2 16.9 68 3.8 SSE 17 24 9 13 1014.3 1014.0 0.0
19/01:30am 23.1 22.3 17.1 69 3.7 SSE 17 30 9 16 1014.7 1014.4 0.0
19/01:00am 23.2 22.4 17.0 68 3.8 SSE 17 26 9 14 1014.7 1014.4 0.0
19/12:30am 23.1 22.1 16.6 67 4.0 SSE 17 24 9 13 1014.9 1014.6 0.0
19/12:00am 23.3 22.0 16.8 67 4.0 SSE 19 28 10 15 1014.9 1014.6 0.0
 
Date/Time
CST
Temp
°C
App
Temp
°C
Dew
Point
°C
Rel
Hum
%
Delta-T
°C
Wind Press
QNH
hPa
Press
MSL
hPa
Rain since
9am
mm
Dir  Spd
km/h
Gust
km/h
Spd
kts
Gust
kts
18/11:30pm 23.3 21.8 16.8 67 4.0 SSE 20 30 11 16 1015.1 1014.8 0.0
18/11:00pm 23.5 22.8 17.3 68 3.8 SSE 17 30 9 16 1015.2 1014.9 0.0
18/10:30pm 23.5 22.3 17.5 69 3.7 SSE 20 28 11 15 1015.4 1015.1 0.0
18/10:00pm 23.3 22.3 17.5 70 3.6 SSE 19 28 10 15 1015.6 1015.3 0.0
18/09:30pm 22.9 22.9 18.0 74 3.1 SSE 15 22 8 12 1015.8 1015.5 0.0
18/09:00pm 23.2 22.9 18.3 74 3.1 SSE 17 26 9 14 1015.6 1015.3 0.0
18/08:30pm 23.5 23.3 18.4 73 3.2 SSE 17 26 9 14 1015.4 1015.1 0.0
18/08:00pm 23.6 23.2 18.9 75 3.0 SSE 19 26 10 14 1015.1 1014.8 0.0
18/07:30pm 23.8 22.9 18.2 71 3.5 SSE 20 30 11 16 1014.7 1014.4 0.0
18/07:00pm 24.0 23.1 17.7 68 3.9 SSE 19 26 10 14 1014.4 1014.1 0.0
18/06:30pm 24.1 23.0 17.4 66 4.2 SSE 19 26 10 14 1014.3 1014.0 0.0
18/06:00pm 24.3 23.0 17.3 65 4.4 SSE 20 32 11 17 1014.0 1013.7 0.0
18/05:30pm 24.9 23.5 17.1 62 4.8 SSE 20 35 11 19 1013.9 1013.6 0.0
18/05:00pm 25.5 22.5 16.9 59 5.3 SSE 28 39 15 21 1013.5 1013.2 0.0
18/04:30pm 25.9 22.6 17.0 58 5.5 SSE 30 43 16 23 1013.3 1013.0 0.0
18/04:00pm 26.4 23.4 16.9 56 5.9 SSE 28 43 15 23 1013.5 1013.2 0.0
18/03:30pm 26.6 23.3 17.1 56 5.9 SSE 30 41 16 22 1013.4 1013.1 0.0
18/03:00pm 26.4 23.2 16.3 53 6.2 SSE 28 39 15 21 1013.4 1013.1 0.0
18/02:30pm 26.8 22.6 15.8 51 6.7 SSE 32 50 17 27 1013.4 1013.1 0.0
18/02:10pm 27.1 22.6 14.8 47 7.4 SSE 32 52 17 28 1013.7 1013.4 0.0
18/02:00pm 27.0 22.7 16.0 51 6.8 SSE 33 48 18 26 1013.8 1013.5 0.0
18/01:45pm 27.1 24.0 17.6 56 6.0 SE 30 48 16 26 1013.9 1013.6 0.0
18/01:30pm 26.5 22.9 17.6 58 5.6 SSE 33 48 18 26 1014.1 1013.8 0.0
18/01:00pm 27.4 23.2 18.1 57 5.9 SE 37 50 20 27 1014.4 1014.1 0.0
18/12:43pm 27.4 23.7 18.4 58 5.8 SE 35 54 19 29 1014.5 1014.2 0.0
18/12:30pm 26.9 23.5 18.2 59 5.5 SSE 33 46 18 25 1014.8 1014.5 0.0
18/12:06pm 27.1 23.9 18.1 58 5.7 SSE 32 50 17 27 1015.0 1014.7 0.0
18/12:00pm 26.8 24.1 19.2 63 4.9 SSE 32 44 17 24 1015.1 1014.8 0.0
18/11:30am 26.8 24.4 19.2 63 4.9 SSE 30 43 16 23 1015.2 1014.9 0.0
18/11:00am 27.0 24.4 17.8 57 5.8 SSE 28 44 15 24 1015.5 1015.2 0.0
18/10:30am 26.7 23.1 17.2 56 5.9 SSE 32 43 17 23 1015.6 1015.3 0.0
18/10:00am 27.2 23.6 17.7 56 6.0 SE 33 48 18 26 1015.7 1015.4 0.0
18/09:30am 27.0 24.1 18.0 58 5.7 SE 30 39 16 21 1015.8 1015.5 0.0
18/09:00am 25.8 23.5 17.7 61 5.1 SSE 26 39 14 21 1015.8 1015.5 0.0
18/08:30am 25.2 24.3 18.2 65 4.4 SSE 20 30 11 16 1015.9 1015.6 0.0
18/08:00am 25.2 25.0 18.4 66 4.3 SSE 17 24 9 13 1015.6 1015.3 0.0
18/07:30am 24.4 24.6 18.6 70 3.7 SSE 15 20 8 11 1015.2 1014.9 0.0
18/07:00am 23.7 24.6 19.2 76 2.9 SSE 13 20 7 11 1015.0 1014.7 0.0
18/06:30am 24.0 24.9 20.1 79 2.5 SSE 15 22 8 12 1014.8 1014.5 0.0
18/06:00am 23.7 24.8 20.4 82 2.1 SSE 15 20 8 11 1014.6 1014.3 0.0
18/05:30am 23.7 25.0 20.8 84 1.9 SSE 15 24 8 13 1014.4 1014.1 0.0
18/05:00am 23.6 25.0 21.1 86 1.6 SSE 15 20 8 11 1014.2 1013.9 0.0
18/04:30am 23.2 25.0 21.1 88 1.4 SSE 13 19 7 10 1013.9 1013.6 0.0
18/04:00am 22.7 24.8 21.0 90 1.1 SSE 11 15 6 8 1014.0 1013.7 0.0
18/03:30am 22.7 24.7 20.8 89 1.2 S 11 15 6 8 1014.2 1013.9 0.0
18/03:00am 22.8 24.3 20.5 87 1.5 SSE 13 15 7 8 1014.4 1014.1 0.0
18/02:30am 22.8 24.7 20.5 87 1.5 SSE 11 13 6 7 1014.6 1014.3 0.0
18/02:00am 23.2 24.7 20.5 85 1.8 SSE 13 17 7 9 1014.7 1014.4 0.0
18/01:30am 23.3 25.2 20.6 85 1.8 S 11 15 6 8 1015.0 1014.7 0.0
18/01:00am 23.4 24.9 20.5 84 1.9 S 13 19 7 10 1015.3 1015.0 0.0
18/12:30am 23.4 25.4 20.7 85 1.8 SSE 11 17 6 9 1015.5 1015.2 0.0
18/12:00am 23.5 25.4 20.6 84 1.9 SSE 11 17 6 9 1015.5 1015.2 0.0
 
Date/Time
CST
Temp
°C
App
Temp
°C
Dew
Point
°C
Rel
Hum
%
Delta-T
°C
Wind Press
QNH
hPa
Press
MSL
hPa
Rain since
9am
mm
Dir  Spd
km/h
Gust
km/h
Spd
kts
Gust
kts
17/11:30pm 23.5 25.0 20.6 84 1.9 SSE 13 19 7 10 1015.7 1015.4 0.0
17/11:00pm 23.7 25.2 20.6 83 2.0 SSE 13 20 7 11 1015.8 1015.5 0.0
17/10:30pm 23.6 25.1 20.5 83 2.0 SSE 13 17 7 9 1016.0 1015.7 0.0
17/10:00pm 23.8 25.3 20.5 82 2.2 SSE 13 19 7 10 1016.1 1015.8 0.0
17/09:30pm 23.8 25.3 20.5 82 2.1 SSE 13 19 7 10 1015.9 1015.6 0.0
17/09:00pm 24.0 25.1 20.5 81 2.3 SSE 15 22 8 12 1015.6 1015.3 0.0
17/08:30pm 24.1 25.3 20.6 81 2.3 SSE 15 22 8 12 1015.3 1015.0 0.0
17/08:00pm 24.0 25.1 20.5 81 2.3 SSE 15 24 8 13 1014.9 1014.6 0.0
17/07:30pm 24.2 24.8 20.3 79 2.5 SSE 17 24 9 13 1014.5 1014.2 0.0
17/07:00pm 24.3 25.0 20.4 79 2.5 SSE 17 26 9 14 1014.2 1013.9 0.0
17/06:30pm 24.7 25.4 20.4 77 2.8 SSE 17 24 9 13 1013.8 1013.5 0.0
17/06:00pm 25.1 25.3 20.6 76 2.9 SSE 20 32 11 17 1013.5 1013.2 0.0
17/05:30pm 25.4 25.1 20.4 74 3.3 SSE 22 32 12 17 1013.4 1013.1 0.0
17/05:00pm 25.7 25.6 20.7 74 3.3 SSE 22 32 12 17 1013.2 1012.9 0.0
17/04:30pm 26.3 25.0 20.6 71 3.7 SSE 28 39 15 21 1013.1 1012.8 0.0
17/04:00pm 26.1 25.6 20.7 72 3.6 SSE 24 35 13 19 1013.0 1012.7 0.0
17/03:30pm 27.1 26.2 20.7 68 4.2 SE 26 41 14 22 1012.9 1012.6 0.0
17/03:00pm 26.6 24.6 20.0 67 4.3 SSE 30 43 16 23 1012.9 1012.6 0.0
17/02:30pm 27.7 25.7 20.0 63 5.0 SSE 30 39 16 21 1013.1 1012.8 0.0
17/02:00pm 27.5 25.4 19.8 63 5.0 SE 30 44 16 24 1013.3 1013.0 0.0
17/01:30pm 28.0 27.2 20.8 65 4.8 SSE 26 41 14 22 1013.7 1013.4 0.0
17/01:00pm 26.8 25.1 19.9 66 4.5 SSE 28 41 15 22 1014.2 1013.9 0.0
17/12:30pm 27.3 26.1 20.1 64 4.7 SSE 26 39 14 21 1014.5 1014.2 0.0
17/12:00pm 27.0 25.4 20.1 66 4.5 SSE 28 43 15 23 1014.9 1014.6 0.0
17/11:30am 26.7 25.2 20.3 68 4.2 SSE 28 39 15 21 1015.2 1014.9 0.0
17/11:00am 27.0 25.0 19.9 65 4.6 SE 30 41 16 22 1015.5 1015.2 0.0
17/10:30am 27.5 25.3 20.3 65 4.7 SE 32 41 17 22 1015.5 1015.2 0.0
17/10:00am 26.7 24.9 20.3 68 4.2 SE 30 41 16 22 1015.6 1015.3 0.0
17/09:30am 27.4 26.8 20.5 66 4.5 SE 24 32 13 17 1015.6 1015.3 0.0
17/09:00am 26.8 26.9 21.1 71 3.8 SE 22 28 12 15 1015.5 1015.2 0.0
17/08:30am 25.7 26.3 21.1 76 3.0 SE 19 26 10 14 1015.5 1015.2 0.0
17/08:00am 24.4 26.1 20.9 81 2.3 SSE 13 19 7 10 1015.2 1014.9 0.0
17/07:30am 22.8 25.5 20.7 88 1.4 SSE 7 9 4 5 1014.9 1014.6 0.0
17/07:00am 21.7 23.9 20.5 93 0.8 S 9 13 5 7 1014.6 1014.3 0.0
17/06:30am 21.6 23.7 20.2 92 0.9 S 9 13 5 7 1014.2 1013.9 0.0
17/06:00am 21.4 23.5 20.2 93 0.8 SSE 9 11 5 6 1014.0 1013.7 0.0
17/05:30am 21.2 23.2 20.0 93 0.8 S 9 13 5 7 1013.8 1013.5 0.0
17/05:00am 21.3 23.3 19.9 92 0.9 SSE 9 13 5 7 1013.9 1013.6 0.0
17/04:30am 21.1 23.2 20.1 94 0.6 SSE 9 13 5 7 1013.8 1013.5 0.0
17/04:00am 20.4 22.2 19.6 95 0.5 SSE 9 11 5 6 1013.5 1013.2 0.0
17/03:30am 19.6 22.8 18.8 95 0.5 CALM 0 0 0 0 1013.7 1013.4 0.0
17/03:00am 20.0 23.0 19.2 95 0.5 SSE 2 6 1 3 1013.8 1013.5 0.0
17/02:30am 19.8 22.9 18.6 93 0.7 CALM 0 0 0 0 1013.8 1013.5 0.0
17/02:00am 20.5 22.8 19.5 94 0.6 S 6 7 3 4 1013.9 1013.6 0.0
17/01:30am 20.7 22.9 19.5 93 0.8 S 7 7 4 4 1014.2 1013.9 0.0
17/01:00am 21.6 24.0 20.1 91 1.0 SSE 7 9 4 5 1014.5 1014.2 0.0
17/12:30am 22.0 24.5 20.3 90 1.1 SSE 7 9 4 5 1014.8 1014.5 0.0
17/12:00am 22.2 24.7 20.3 89 1.2 SSE 7 9 4 5 1014.9 1014.6 0.0
 
Date/Time
CST
Temp
°C
App
Temp
°C
Dew
Point
°C
Rel
Hum
%
Delta-T
°C
Wind Press
QNH
hPa
Press
MSL
hPa
Rain since
9am
mm
Dir  Spd
km/h
Gust
km/h
Spd
kts
Gust
kts
16/11:30pm 22.3 25.0 20.6 90 1.1 SSE 7 9 4 5 1014.9 1014.6 0.0
16/11:00pm 22.4 24.9 20.3 88 1.4 SE 7 9 4 5 1015.3 1015.0 0.0
16/10:30pm 22.8 25.4 20.5 87 1.5 SE 7 9 4 5 1015.4 1015.1 0.0
16/10:00pm 22.8 25.1 20.7 88 1.4 SE 9 11 5 6 1015.5 1015.2 0.0
16/09:30pm 23.3 25.3 20.8 86 1.6 SE 11 13 6 7 1015.3 1015.0 0.0
16/09:00pm 23.5 25.1 20.8 85 1.8 SE 13 15 7 8 1015.1 1014.8 0.0
16/08:30pm 23.6 26.0 21.5 88 1.4 SE 11 15 6 8 1014.7 1014.4 0.0
16/08:00pm 23.8 26.1 21.3 86 1.6 ESE 11 15 6 8 1014.5 1014.2 0.0
16/07:30pm 24.5 25.5 21.0 81 2.3 ESE 17 22 9 12 1014.2 1013.9 0.0
16/07:00pm 24.5 26.6 21.0 81 2.3 SSE 11 15 6 8 1013.9 1013.6 0.0
16/06:30pm 24.8 26.1 20.9 79 2.6 SSE 15 19 8 10 1013.7 1013.4 0.0
16/06:00pm 25.2 26.1 20.9 77 2.8 SSE 17 20 9 11 1013.5 1013.2 0.0
16/05:30pm 25.9 26.6 20.5 72 3.5 SSE 17 24 9 13 1013.2 1012.9 0.0
16/05:00pm 26.7 26.9 20.5 69 4.1 SSE 20 30 11 16 1013.0 1012.7 0.0
16/04:30pm 26.6 25.8 20.0 67 4.3 SE 24 32 13 17 1012.6 1012.3 0.0
16/04:00pm 27.3 27.0 20.4 66 4.5 SE 22 32 12 17 1012.5 1012.2 0.0
16/03:30pm 27.6 26.6 20.4 65 4.7 SE 26 35 14 19 1012.4 1012.1 0.0
16/03:00pm 27.1 26.3 20.0 65 4.6 SE 24 35 13 19 1012.5 1012.2 0.0
16/02:30pm 27.7 27.6 20.8 66 4.6 SE 22 33 12 18 1012.8 1012.5 0.0
16/02:00pm 27.9 26.9 19.7 61 5.3 SE 24 33 13 18 1012.9 1012.6 0.0
16/01:30pm 27.9 26.5 19.7 61 5.3 SE 26 33 14 18 1013.3 1013.0 0.0
16/01:00pm 28.7 28.1 20.4 60 5.5 SE 24 35 13 19 1013.7 1013.4 0.0
16/12:30pm 28.5 27.4 19.4 57 5.9 SE 24 32 13 17 1014.0 1013.7 0.0
16/12:00pm 28.8 27.3 17.7 51 7.0 SE 22 32 12 17 1014.3 1014.0 0.0
16/11:30am 28.1 26.6 17.6 53 6.6 SE 22 30 12 16 1014.7 1014.4 0.0
16/11:00am 27.7 27.2 19.0 59 5.6 SE 20 28 11 15 1014.9 1014.6 0.0
16/10:30am 28.0 27.5 18.7 57 6.0 SE 19 32 10 17 1015.2 1014.9 0.0
16/10:00am 27.3 27.4 19.1 61 5.3 SE 17 26 9 14 1015.2 1014.9 0.0
16/09:30am 26.5 26.7 19.4 65 4.6 SSE 17 22 9 12 1015.2 1014.9 0.0
16/09:00am 25.6 26.2 19.5 69 3.9 SSE 15 22 8 12 1015.0 1014.7 1.6

Other formats

Comma delimited format used in spreadsheet applications
http://www.bom.gov.au/fwo/IDD60801/IDD60801.94150.axf

JavaScript Object Notation format (JSON) in row-major order
http://www.bom.gov.au/fwo/IDD60801/IDD60801.94150.json

Data quality

Most of these data are generated automatically and are frequently updated. Quality checks on data are not normally performed. It is possible for incorrect values to appear. Refer to information at About Latest Weather Observations and please check the disclaimer before using these data.